sensor_id;sensor_type;location;lat;lon;timestamp;temperature;humidity
9209;DHT22;4639;48.862;9.188;2023-02-18T00:02:17;13.10;99.90
9209;DHT22;4639;48.862;9.188;2023-02-18T00:04:43;13.00;99.90
9209;DHT22;4639;48.862;9.188;2023-02-18T00:07:09;13.10;99.90
9209;DHT22;4639;48.862;9.188;2023-02-18T00:09:34;13.00;99.90
9209;DHT22;4639;48.862;9.188;2023-02-18T00:12:02;13.10;99.90
9209;DHT22;4639;48.862;9.188;2023-02-18T00:14:27;13.00;99.90
9209;DHT22;4639;48.862;9.188;2023-02-18T00:16:53;13.10;99.90
9209;DHT22;4639;48.862;9.188;2023-02-18T00:19:19;13.10;99.90
9209;DHT22;4639;48.862;9.188;2023-02-18T00:21:45;13.00;99.90
9209;DHT22;4639;48.862;9.188;2023-02-18T00:24:13;13.00;99.90
9209;DHT22;4639;48.862;9.188;2023-02-18T00:26:42;13.00;99.90
9209;DHT22;4639;48.862;9.188;2023-02-18T00:29:07;13.00;99.90
9209;DHT22;4639;48.862;9.188;2023-02-18T00:31:35;13.00;99.90
9209;DHT22;4639;48.862;9.188;2023-02-18T00:34:02;13.00;99.90
9209;DHT22;4639;48.862;9.188;2023-02-18T00:36:28;13.00;99.90
9209;DHT22;4639;48.862;9.188;2023-02-18T00:38:57;13.00;99.90
9209;DHT22;4639;48.862;9.188;2023-02-18T00:41:25;12.90;99.90
9209;DHT22;4639;48.862;9.188;2023-02-18T00:43:51;13.00;99.90
9209;DHT22;4639;48.862;9.188;2023-02-18T00:46:17;13.10;99.90
9209;DHT22;4639;48.862;9.188;2023-02-18T00:48:43;13.00;99.90
9209;DHT22;4639;48.862;9.188;2023-02-18T00:51:10;13.00;99.90
9209;DHT22;4639;48.862;9.188;2023-02-18T00:53:36;13.00;99.90
9209;DHT22;4639;48.862;9.188;2023-02-18T00:56:01;13.00;99.90
9209;DHT22;4639;48.862;9.188;2023-02-18T00:58:27;13.00;99.90
9209;DHT22;4639;48.862;9.188;2023-02-18T01:00:54;13.00;99.90
9209;DHT22;4639;48.862;9.188;2023-02-18T01:03:20;13.00;99.90
9209;DHT22;4639;48.862;9.188;2023-02-18T01:05:46;12.90;99.90
9209;DHT22;4639;48.862;9.188;2023-02-18T01:08:14;12.90;99.90
9209;DHT22;4639;48.862;9.188;2023-02-18T01:10:43;12.90;99.90
9209;DHT22;4639;48.862;9.188;2023-02-18T01:13:09;13.00;99.90
9209;DHT22;4639;48.862;9.188;2023-02-18T01:15:36;12.90;99.90
9209;DHT22;4639;48.862;9.188;2023-02-18T01:18:02;12.90;99.90
9209;DHT22;4639;48.862;9.188;2023-02-18T01:20:28;12.90;99.90
9209;DHT22;4639;48.862;9.188;2023-02-18T01:22:54;12.90;99.90
9209;DHT22;4639;48.862;9.188;2023-02-18T01:25:19;12.90;99.90
9209;DHT22;4639;48.862;9.188;2023-02-18T01:27:45;12.90;99.90
9209;DHT22;4639;48.862;9.188;2023-02-18T01:30:13;12.90;99.90
9209;DHT22;4639;48.862;9.188;2023-02-18T01:32:39;12.90;99.90
9209;DHT22;4639;48.862;9.188;2023-02-18T01:35:05;12.80;99.90
9209;DHT22;4639;48.862;9.188;2023-02-18T01:37:31;12.80;99.90
9209;DHT22;4639;48.862;9.188;2023-02-18T01:39:57;12.80;99.90
9209;DHT22;4639;48.862;9.188;2023-02-18T01:42:25;12.80;99.90
9209;DHT22;4639;48.862;9.188;2023-02-18T01:44:51;12.80;99.90
9209;DHT22;4639;48.862;9.188;2023-02-18T01:47:18;12.80;99.90
9209;DHT22;4639;48.862;9.188;2023-02-18T01:49:45;12.80;99.90
9209;DHT22;4639;48.862;9.188;2023-02-18T01:52:18;12.80;99.90
9209;DHT22;4639;48.862;9.188;2023-02-18T01:54:49;12.90;99.90
9209;DHT22;4639;48.862;9.188;2023-02-18T01:57:24;12.70;99.90
9209;DHT22;4639;48.862;9.188;2023-02-18T01:59:55;12.80;99.90
9209;DHT22;4639;48.862;9.188;2023-02-18T02:02:24;12.70;99.90
9209;DHT22;4639;48.862;9.188;2023-02-18T02:04:51;12.60;99.90
9209;DHT22;4639;48.862;9.188;2023-02-18T02:07:18;12.70;99.90
9209;DHT22;4639;48.862;9.188;2023-02-18T02:09:46;12.70;99.90
9209;DHT22;4639;48.862;9.188;2023-02-18T02:17:36;12.70;99.90
9209;DHT22;4639;48.862;9.188;2023-02-18T02:20:33;12.80;99.90
9209;DHT22;4639;48.862;9.188;2023-02-18T02:23:33;12.80;99.90
9209;DHT22;4639;48.862;9.188;2023-02-18T02:29:10;12.70;99.90
9209;DHT22;4639;48.862;9.188;2023-02-18T02:37:41;12.70;99.90
9209;DHT22;4639;48.862;9.188;2023-02-18T02:40:31;13.00;99.90
9209;DHT22;4639;48.862;9.188;2023-02-18T02:45:54;12.60;99.90
9209;DHT22;4639;48.862;9.188;2023-02-18T02:48:37;12.60;99.90
9209;DHT22;4639;48.862;9.188;2023-02-18T02:53:40;12.50;99.90
9209;DHT22;4639;48.862;9.188;2023-02-18T02:56:12;12.50;99.90
9209;DHT22;4639;48.862;9.188;2023-02-18T02:58:38;12.60;99.90
9209;DHT22;4639;48.862;9.188;2023-02-18T03:01:27;12.60;99.90
9209;DHT22;4639;48.862;9.188;2023-02-18T03:04:18;12.50;99.90
9209;DHT22;4639;48.862;9.188;2023-02-18T03:07:02;12.60;99.90
9209;DHT22;4639;48.862;9.188;2023-02-18T03:12:25;12.50;99.90
9209;DHT22;4639;48.862;9.188;2023-02-18T03:18:03;12.60;99.90
9209;DHT22;4639;48.862;9.188;2023-02-18T03:20:42;12.60;99.90
9209;DHT22;4639;48.862;9.188;2023-02-18T03:23:14;12.50;99.90
9209;DHT22;4639;48.862;9.188;2023-02-18T03:25:41;12.50;99.90
9209;DHT22;4639;48.862;9.188;2023-02-18T03:28:18;12.80;99.90
9209;DHT22;4639;48.862;9.188;2023-02-18T03:30:50;12.60;99.90
9209;DHT22;4639;48.862;9.188;2023-02-18T03:33:21;12.50;99.90
9209;DHT22;4639;48.862;9.188;2023-02-18T03:35:48;12.50;99.90
9209;DHT22;4639;48.862;9.188;2023-02-18T03:38:21;12.50;99.90
9209;DHT22;4639;48.862;9.188;2023-02-18T03:40:48;12.50;99.90
9209;DHT22;4639;48.862;9.188;2023-02-18T03:43:14;12.50;99.90
9209;DHT22;4639;48.862;9.188;2023-02-18T03:45:39;12.50;99.90
9209;DHT22;4639;48.862;9.188;2023-02-18T03:48:05;12.50;99.90
9209;DHT22;4639;48.862;9.188;2023-02-18T03:50:31;12.50;99.90
9209;DHT22;4639;48.862;9.188;2023-02-18T03:52:56;12.50;99.90
9209;DHT22;4639;48.862;9.188;2023-02-18T03:55:22;12.50;99.90
9209;DHT22;4639;48.862;9.188;2023-02-18T03:57:48;12.50;99.90
9209;DHT22;4639;48.862;9.188;2023-02-18T04:00:13;12.40;99.90
9209;DHT22;4639;48.862;9.188;2023-02-18T04:02:40;12.50;99.90
9209;DHT22;4639;48.862;9.188;2023-02-18T04:05:06;12.50;99.90
9209;DHT22;4639;48.862;9.188;2023-02-18T04:07:32;12.40;99.90
9209;DHT22;4639;48.862;9.188;2023-02-18T04:09:58;12.40;99.90
9209;DHT22;4639;48.862;9.188;2023-02-18T04:12:24;12.40;99.90
9209;DHT22;4639;48.862;9.188;2023-02-18T04:14:49;12.30;99.90
9209;DHT22;4639;48.862;9.188;2023-02-18T04:17:15;12.40;99.90
9209;DHT22;4639;48.862;9.188;2023-02-18T04:19:40;12.30;99.90
9209;DHT22;4639;48.862;9.188;2023-02-18T04:22:06;12.30;99.90
9209;DHT22;4639;48.862;9.188;2023-02-18T04:24:32;12.30;99.90
9209;DHT22;4639;48.862;9.188;2023-02-18T04:26:57;12.30;99.90
9209;DHT22;4639;48.862;9.188;2023-02-18T04:29:23;12.30;99.90
9209;DHT22;4639;48.862;9.188;2023-02-18T04:31:48;12.30;99.90
9209;DHT22;4639;48.862;9.188;2023-02-18T04:34:14;12.20;99.90
9209;DHT22;4639;48.862;9.188;2023-02-18T04:36:39;12.20;99.90
9209;DHT22;4639;48.862;9.188;2023-02-18T04:39:05;12.30;99.90
9209;DHT22;4639;48.862;9.188;2023-02-18T04:41:30;12.30;99.90
9209;DHT22;4639;48.862;9.188;2023-02-18T04:43:56;12.30;99.90
9209;DHT22;4639;48.862;9.188;2023-02-18T04:46:24;12.40;99.90
9209;DHT22;4639;48.862;9.188;2023-02-18T04:48:49;12.50;99.90
9209;DHT22;4639;48.862;9.188;2023-02-18T04:51:15;12.50;99.90
9209;DHT22;4639;48.862;9.188;2023-02-18T04:53:41;12.50;99.90
9209;DHT22;4639;48.862;9.188;2023-02-18T04:56:06;12.40;99.90
9209;DHT22;4639;48.862;9.188;2023-02-18T04:58:32;12.30;99.90
9209;DHT22;4639;48.862;9.188;2023-02-18T05:00:59;12.30;99.90
9209;DHT22;4639;48.862;9.188;2023-02-18T05:03:25;12.30;99.90
9209;DHT22;4639;48.862;9.188;2023-02-18T05:05:51;12.30;99.90
9209;DHT22;4639;48.862;9.188;2023-02-18T05:08:16;12.30;99.90
9209;DHT22;4639;48.862;9.188;2023-02-18T05:10:43;12.20;99.90
9209;DHT22;4639;48.862;9.188;2023-02-18T05:13:08;12.20;99.90
9209;DHT22;4639;48.862;9.188;2023-02-18T05:15:34;12.20;99.90
9209;DHT22;4639;48.862;9.188;2023-02-18T05:18:00;12.30;99.90
9209;DHT22;4639;48.862;9.188;2023-02-18T05:20:26;12.20;99.90
9209;DHT22;4639;48.862;9.188;2023-02-18T05:22:51;12.20;99.90
9209;DHT22;4639;48.862;9.188;2023-02-18T05:25:17;12.00;99.90
9209;DHT22;4639;48.862;9.188;2023-02-18T05:27:43;12.00;99.90
9209;DHT22;4639;48.862;9.188;2023-02-18T05:30:09;12.00;99.90
9209;DHT22;4639;48.862;9.188;2023-02-18T05:32:34;12.00;99.90
9209;DHT22;4639;48.862;9.188;2023-02-18T05:35:00;11.90;99.90
9209;DHT22;4639;48.862;9.188;2023-02-18T05:37:25;11.90;99.90
9209;DHT22;4639;48.862;9.188;2023-02-18T05:39:51;11.80;99.90
9209;DHT22;4639;48.862;9.188;2023-02-18T05:42:16;11.90;99.90
9209;DHT22;4639;48.862;9.188;2023-02-18T05:44:42;11.80;99.90
9209;DHT22;4639;48.862;9.188;2023-02-18T05:47:11;11.90;99.90
9209;DHT22;4639;48.862;9.188;2023-02-18T05:49:39;11.90;99.90
9209;DHT22;4639;48.862;9.188;2023-02-18T05:52:05;11.90;99.90
9209;DHT22;4639;48.862;9.188;2023-02-18T05:54:32;11.90;99.90
9209;DHT22;4639;48.862;9.188;2023-02-18T05:56:57;11.80;99.90
9209;DHT22;4639;48.862;9.188;2023-02-18T05:59:23;11.70;99.90
9209;DHT22;4639;48.862;9.188;2023-02-18T06:01:49;11.70;99.90
9209;DHT22;4639;48.862;9.188;2023-02-18T06:04:14;11.90;99.90
9209;DHT22;4639;48.862;9.188;2023-02-18T06:06:40;11.80;99.90
9209;DHT22;4639;48.862;9.188;2023-02-18T06:09:06;11.80;99.90
9209;DHT22;4639;48.862;9.188;2023-02-18T06:11:33;11.70;99.90
9209;DHT22;4639;48.862;9.188;2023-02-18T06:13:58;11.70;99.90
9209;DHT22;4639;48.862;9.188;2023-02-18T06:16:24;11.60;99.90
9209;DHT22;4639;48.862;9.188;2023-02-18T06:18:50;11.60;99.90
9209;DHT22;4639;48.862;9.188;2023-02-18T06:21:16;11.70;99.90
9209;DHT22;4639;48.862;9.188;2023-02-18T06:23:41;11.70;99.90
9209;DHT22;4639;48.862;9.188;2023-02-18T06:26:07;11.70;99.90
9209;DHT22;4639;48.862;9.188;2023-02-18T06:28:32;11.80;99.90
9209;DHT22;4639;48.862;9.188;2023-02-18T06:30:58;11.80;99.90
9209;DHT22;4639;48.862;9.188;2023-02-18T06:33:23;11.80;99.90
9209;DHT22;4639;48.862;9.188;2023-02-18T06:35:57;11.90;99.90
9209;DHT22;4639;48.862;9.188;2023-02-18T06:38:23;11.90;99.90
9209;DHT22;4639;48.862;9.188;2023-02-18T06:40:49;11.80;99.90
9209;DHT22;4639;48.862;9.188;2023-02-18T06:43:15;11.80;99.90
9209;DHT22;4639;48.862;9.188;2023-02-18T06:45:41;11.80;99.90
9209;DHT22;4639;48.862;9.188;2023-02-18T06:48:06;12.00;99.90
9209;DHT22;4639;48.862;9.188;2023-02-18T06:50:32;12.00;99.90
9209;DHT22;4639;48.862;9.188;2023-02-18T06:52:57;12.00;99.90
9209;DHT22;4639;48.862;9.188;2023-02-18T06:55:24;12.00;99.90
9209;DHT22;4639;48.862;9.188;2023-02-18T06:57:49;12.00;99.90
9209;DHT22;4639;48.862;9.188;2023-02-18T07:00:15;12.00;99.90
9209;DHT22;4639;48.862;9.188;2023-02-18T07:02:41;12.10;99.90
9209;DHT22;4639;48.862;9.188;2023-02-18T07:05:07;12.10;99.90
9209;DHT22;4639;48.862;9.188;2023-02-18T07:07:32;12.10;99.90
9209;DHT22;4639;48.862;9.188;2023-02-18T07:09:58;12.30;99.90
9209;DHT22;4639;48.862;9.188;2023-02-18T07:12:24;12.20;99.90
9209;DHT22;4639;48.862;9.188;2023-02-18T07:14:49;12.20;99.90
9209;DHT22;4639;48.862;9.188;2023-02-18T07:17:15;12.30;99.90
9209;DHT22;4639;48.862;9.188;2023-02-18T07:19:40;12.30;99.90
9209;DHT22;4639;48.862;9.188;2023-02-18T07:22:06;12.30;99.90
9209;DHT22;4639;48.862;9.188;2023-02-18T07:24:32;12.30;99.90
9209;DHT22;4639;48.862;9.188;2023-02-18T07:26:57;12.20;99.90
9209;DHT22;4639;48.862;9.188;2023-02-18T07:29:23;12.30;99.90
9209;DHT22;4639;48.862;9.188;2023-02-18T07:31:48;12.50;99.90
9209;DHT22;4639;48.862;9.188;2023-02-18T07:34:14;12.30;99.90
9209;DHT22;4639;48.862;9.188;2023-02-18T07:36:39;12.40;99.90
9209;DHT22;4639;48.862;9.188;2023-02-18T07:39:05;12.40;99.90
9209;DHT22;4639;48.862;9.188;2023-02-18T07:41:31;12.40;99.90
9209;DHT22;4639;48.862;9.188;2023-02-18T07:43:56;12.50;99.90
9209;DHT22;4639;48.862;9.188;2023-02-18T07:46:22;12.50;99.90
9209;DHT22;4639;48.862;9.188;2023-02-18T07:48:47;12.50;99.90
9209;DHT22;4639;48.862;9.188;2023-02-18T07:51:13;12.50;99.90
9209;DHT22;4639;48.862;9.188;2023-02-18T07:53:39;12.50;99.90
9209;DHT22;4639;48.862;9.188;2023-02-18T07:56:05;12.50;99.90
9209;DHT22;4639;48.862;9.188;2023-02-18T07:58:33;12.60;99.90
9209;DHT22;4639;48.862;9.188;2023-02-18T08:01:02;12.60;99.90
9209;DHT22;4639;48.862;9.188;2023-02-18T08:03:30;12.70;99.90
9209;DHT22;4639;48.862;9.188;2023-02-18T08:05:56;12.80;99.90
9209;DHT22;4639;48.862;9.188;2023-02-18T08:08:28;12.80;99.90
9209;DHT22;4639;48.862;9.188;2023-02-18T08:10:58;12.90;99.90
9209;DHT22;4639;48.862;9.188;2023-02-18T08:13:27;13.00;99.90
9209;DHT22;4639;48.862;9.188;2023-02-18T08:15:56;12.90;99.90
9209;DHT22;4639;48.862;9.188;2023-02-18T08:18:23;12.90;99.90
9209;DHT22;4639;48.862;9.188;2023-02-18T08:20:49;13.00;99.90
9209;DHT22;4639;48.862;9.188;2023-02-18T08:23:18;13.00;99.90
9209;DHT22;4639;48.862;9.188;2023-02-18T08:25:51;13.00;99.90
9209;DHT22;4639;48.862;9.188;2023-02-18T08:28:18;13.00;99.90
9209;DHT22;4639;48.862;9.188;2023-02-18T08:30:45;13.10;99.90
9209;DHT22;4639;48.862;9.188;2023-02-18T08:33:11;13.10;99.90
9209;DHT22;4639;48.862;9.188;2023-02-18T08:35:36;13.20;99.90
9209;DHT22;4639;48.862;9.188;2023-02-18T08:38:02;13.20;99.90
9209;DHT22;4639;48.862;9.188;2023-02-18T08:40:28;13.30;99.90
9209;DHT22;4639;48.862;9.188;2023-02-18T08:42:53;13.30;99.90
9209;DHT22;4639;48.862;9.188;2023-02-18T08:45:19;13.30;99.90
9209;DHT22;4639;48.862;9.188;2023-02-18T08:47:44;13.40;99.90
9209;DHT22;4639;48.862;9.188;2023-02-18T08:50:10;13.40;99.90
9209;DHT22;4639;48.862;9.188;2023-02-18T08:52:36;13.40;99.90
9209;DHT22;4639;48.862;9.188;2023-02-18T08:55:03;13.50;99.90
9209;DHT22;4639;48.862;9.188;2023-02-18T08:57:28;13.60;99.90
9209;DHT22;4639;48.862;9.188;2023-02-18T08:59:54;13.60;99.90
9209;DHT22;4639;48.862;9.188;2023-02-18T09:02:20;13.60;99.90
9209;DHT22;4639;48.862;9.188;2023-02-18T09:04:45;13.60;99.90
9209;DHT22;4639;48.862;9.188;2023-02-18T09:07:11;13.60;99.90
9209;DHT22;4639;48.862;9.188;2023-02-18T09:09:37;13.60;99.90
9209;DHT22;4639;48.862;9.188;2023-02-18T09:12:02;13.70;99.90
9209;DHT22;4639;48.862;9.188;2023-02-18T09:14:28;13.70;99.90
9209;DHT22;4639;48.862;9.188;2023-02-18T09:16:56;13.80;99.90
9209;DHT22;4639;48.862;9.188;2023-02-18T09:19:22;13.90;99.90
9209;DHT22;4639;48.862;9.188;2023-02-18T09:21:48;14.00;99.90
9209;DHT22;4639;48.862;9.188;2023-02-18T09:24:13;14.10;99.90
9209;DHT22;4639;48.862;9.188;2023-02-18T09:26:39;14.10;99.90
9209;DHT22;4639;48.862;9.188;2023-02-18T09:29:05;14.10;99.90
9209;DHT22;4639;48.862;9.188;2023-02-18T09:31:30;14.20;99.90
9209;DHT22;4639;48.862;9.188;2023-02-18T09:33:58;14.20;99.90
9209;DHT22;4639;48.862;9.188;2023-02-18T09:36:25;14.30;99.90
9209;DHT22;4639;48.862;9.188;2023-02-18T09:38:51;14.40;99.90
9209;DHT22;4639;48.862;9.188;2023-02-18T09:43:54;14.40;99.90
9209;DHT22;4639;48.862;9.188;2023-02-18T09:46:29;14.30;99.90
9209;DHT22;4639;48.862;9.188;2023-02-18T09:49:00;14.30;99.90
9209;DHT22;4639;48.862;9.188;2023-02-18T09:51:26;14.40;99.90
9209;DHT22;4639;48.862;9.188;2023-02-18T09:53:52;14.40;99.90
9209;DHT22;4639;48.862;9.188;2023-02-18T09:56:36;14.30;99.90
9209;DHT22;4639;48.862;9.188;2023-02-18T09:59:05;14.30;99.90
9209;DHT22;4639;48.862;9.188;2023-02-18T10:01:36;14.40;99.90
9209;DHT22;4639;48.862;9.188;2023-02-18T10:04:16;14.40;99.90
9209;DHT22;4639;48.862;9.188;2023-02-18T10:06:44;14.40;99.90
9209;DHT22;4639;48.862;9.188;2023-02-18T10:09:36;14.40;99.90
9209;DHT22;4639;48.862;9.188;2023-02-18T10:12:23;14.20;99.90
9209;DHT22;4639;48.862;9.188;2023-02-18T10:14:58;14.20;99.90
9209;DHT22;4639;48.862;9.188;2023-02-18T10:17:27;14.10;99.90
9209;DHT22;4639;48.862;9.188;2023-02-18T10:19:55;14.10;99.90
9209;DHT22;4639;48.862;9.188;2023-02-18T10:22:23;14.20;99.90
9209;DHT22;4639;48.862;9.188;2023-02-18T10:24:52;14.30;99.90
9209;DHT22;4639;48.862;9.188;2023-02-18T10:27:32;14.30;99.90
9209;DHT22;4639;48.862;9.188;2023-02-18T10:32:43;14.40;99.90
9209;DHT22;4639;48.862;9.188;2023-02-18T10:35:31;14.40;99.90
9209;DHT22;4639;48.862;9.188;2023-02-18T10:38:25;14.30;99.90
9209;DHT22;4639;48.862;9.188;2023-02-18T10:52:15;14.50;99.90
9209;DHT22;4639;48.862;9.188;2023-02-18T10:54:57;14.50;99.90
9209;DHT22;4639;48.862;9.188;2023-02-18T10:57:23;14.50;99.90
9209;DHT22;4639;48.862;9.188;2023-02-18T11:00:01;14.80;99.90
9209;DHT22;4639;48.862;9.188;2023-02-18T11:02:35;14.70;99.90
9209;DHT22;4639;48.862;9.188;2023-02-18T11:05:25;14.70;99.90
9209;DHT22;4639;48.862;9.188;2023-02-18T11:07:53;14.80;99.90
9209;DHT22;4639;48.862;9.188;2023-02-18T11:10:28;15.00;99.90
9209;DHT22;4639;48.862;9.188;2023-02-18T11:12:57;14.90;99.90
9209;DHT22;4639;48.862;9.188;2023-02-18T11:15:27;14.90;99.90
9209;DHT22;4639;48.862;9.188;2023-02-18T11:18:10;14.90;99.90
9209;DHT22;4639;48.862;9.188;2023-02-18T11:20:37;15.00;99.90
9209;DHT22;4639;48.862;9.188;2023-02-18T11:23:16;14.80;99.90
9209;DHT22;4639;48.862;9.188;2023-02-18T11:26:13;14.70;99.90
9209;DHT22;4639;48.862;9.188;2023-02-18T11:31:07;14.80;99.90
9209;DHT22;4639;48.862;9.188;2023-02-18T11:33:40;14.70;99.90
9209;DHT22;4639;48.862;9.188;2023-02-18T11:36:23;14.80;99.90
9209;DHT22;4639;48.862;9.188;2023-02-18T11:39:01;14.80;99.90
9209;DHT22;4639;48.862;9.188;2023-02-18T11:41:38;14.80;99.90
9209;DHT22;4639;48.862;9.188;2023-02-18T11:44:18;14.90;99.90
9209;DHT22;4639;48.862;9.188;2023-02-18T11:49:32;14.90;99.90
9209;DHT22;4639;48.862;9.188;2023-02-18T11:52:31;14.90;99.90
9209;DHT22;4639;48.862;9.188;2023-02-18T11:55:04;14.90;99.90
9209;DHT22;4639;48.862;9.188;2023-02-18T11:57:33;14.80;99.90
9209;DHT22;4639;48.862;9.188;2023-02-18T12:00:00;14.80;99.90
9209;DHT22;4639;48.862;9.188;2023-02-18T12:05:02;14.90;99.90
9209;DHT22;4639;48.862;9.188;2023-02-18T12:07:46;14.90;99.90
9209;DHT22;4639;48.862;9.188;2023-02-18T12:12:59;15.40;99.90
9209;DHT22;4639;48.862;9.188;2023-02-18T12:16:20;15.40;99.90
9209;DHT22;4639;48.862;9.188;2023-02-18T12:19:21;15.20;99.90
9209;DHT22;4639;48.862;9.188;2023-02-18T12:29:48;15.10;99.90
9209;DHT22;4639;48.862;9.188;2023-02-18T12:37:46;15.10;99.90
9209;DHT22;4639;48.862;9.188;2023-02-18T12:40:51;15.20;99.90
9209;DHT22;4639;48.862;9.188;2023-02-18T12:43:35;15.00;99.90
9209;DHT22;4639;48.862;9.188;2023-02-18T12:46:27;14.90;99.90
9209;DHT22;4639;48.862;9.188;2023-02-18T12:57:46;14.60;99.90
9209;DHT22;4639;48.862;9.188;2023-02-18T13:00:18;14.50;99.90
9209;DHT22;4639;48.862;9.188;2023-02-18T13:03:13;14.50;99.90
9209;DHT22;4639;48.862;9.188;2023-02-18T13:06:07;14.50;99.90
9209;DHT22;4639;48.862;9.188;2023-02-18T13:11:42;14.40;99.90
9209;DHT22;4639;48.862;9.188;2023-02-18T13:14:22;14.50;99.90
9209;DHT22;4639;48.862;9.188;2023-02-18T13:16:52;14.40;99.90
9209;DHT22;4639;48.862;9.188;2023-02-18T13:19:30;14.30;99.90
9209;DHT22;4639;48.862;9.188;2023-02-18T13:22:03;14.40;99.90
9209;DHT22;4639;48.862;9.188;2023-02-18T13:24:32;14.40;99.90
9209;DHT22;4639;48.862;9.188;2023-02-18T13:32:43;14.20;99.90
9209;DHT22;4639;48.862;9.188;2023-02-18T13:38:11;14.20;99.90
9209;DHT22;4639;48.862;9.188;2023-02-18T13:40:41;14.20;99.90
9209;DHT22;4639;48.862;9.188;2023-02-18T13:48:51;14.20;99.90
9209;DHT22;4639;48.862;9.188;2023-02-18T13:53:59;14.30;99.90
9209;DHT22;4639;48.862;9.188;2023-02-18T13:56:31;14.30;99.90
9209;DHT22;4639;48.862;9.188;2023-02-18T14:01:48;14.40;99.90
9209;DHT22;4639;48.862;9.188;2023-02-18T14:09:59;14.50;99.90
9209;DHT22;4639;48.862;9.188;2023-02-18T14:15:58;14.50;99.90
9209;DHT22;4639;48.862;9.188;2023-02-18T14:18:31;14.40;99.90
9209;DHT22;4639;48.862;9.188;2023-02-18T14:23:43;14.40;99.90
9209;DHT22;4639;48.862;9.188;2023-02-18T14:33:41;14.30;99.90
9209;DHT22;4639;48.862;9.188;2023-02-18T14:44:35;14.50;99.90
9209;DHT22;4639;48.862;9.188;2023-02-18T14:47:13;14.40;99.90
9209;DHT22;4639;48.862;9.188;2023-02-18T14:50:02;14.30;99.90
9209;DHT22;4639;48.862;9.188;2023-02-18T14:52:36;14.50;99.90
9209;DHT22;4639;48.862;9.188;2023-02-18T14:55:05;14.60;99.90
9209;DHT22;4639;48.862;9.188;2023-02-18T14:57:50;14.70;99.90
9209;DHT22;4639;48.862;9.188;2023-02-18T15:00:24;14.60;99.90
9209;DHT22;4639;48.862;9.188;2023-02-18T15:02:54;14.40;99.90
9209;DHT22;4639;48.862;9.188;2023-02-18T15:05:26;14.40;99.90
9209;DHT22;4639;48.862;9.188;2023-02-18T15:08:23;14.40;99.90
9209;DHT22;4639;48.862;9.188;2023-02-18T15:10:55;14.30;99.90
9209;DHT22;4639;48.862;9.188;2023-02-18T15:13:31;14.30;99.90
9209;DHT22;4639;48.862;9.188;2023-02-18T15:16:04;14.20;99.90
9209;DHT22;4639;48.862;9.188;2023-02-18T15:18:35;14.20;99.90
9209;DHT22;4639;48.862;9.188;2023-02-18T15:21:02;14.20;99.90
9209;DHT22;4639;48.862;9.188;2023-02-18T15:23:29;14.10;99.90
9209;DHT22;4639;48.862;9.188;2023-02-18T15:25:56;14.00;99.90
9209;DHT22;4639;48.862;9.188;2023-02-18T15:28:25;14.10;99.90
9209;DHT22;4639;48.862;9.188;2023-02-18T15:30:51;14.10;99.90
9209;DHT22;4639;48.862;9.188;2023-02-18T15:33:18;14.20;99.90
9209;DHT22;4639;48.862;9.188;2023-02-18T15:35:44;14.00;99.90
9209;DHT22;4639;48.862;9.188;2023-02-18T15:38:15;13.90;99.90
9209;DHT22;4639;48.862;9.188;2023-02-18T15:40:42;13.90;99.90
9209;DHT22;4639;48.862;9.188;2023-02-18T15:43:15;13.90;99.90
9209;DHT22;4639;48.862;9.188;2023-02-18T15:45:44;13.90;99.90
9209;DHT22;4639;48.862;9.188;2023-02-18T15:50:51;13.70;99.90
9209;DHT22;4639;48.862;9.188;2023-02-18T15:53:18;13.70;99.90
9209;DHT22;4639;48.862;9.188;2023-02-18T15:55:47;13.60;99.90
9209;DHT22;4639;48.862;9.188;2023-02-18T15:58:18;13.50;99.90
9209;DHT22;4639;48.862;9.188;2023-02-18T16:00:51;13.60;99.90
9209;DHT22;4639;48.862;9.188;2023-02-18T16:03:49;13.80;99.90
9209;DHT22;4639;48.862;9.188;2023-02-18T16:06:29;13.60;99.90
9209;DHT22;4639;48.862;9.188;2023-02-18T16:11:24;13.50;99.90
9209;DHT22;4639;48.862;9.188;2023-02-18T16:13:52;13.60;99.90
9209;DHT22;4639;48.862;9.188;2023-02-18T16:16:37;13.50;99.90
9209;DHT22;4639;48.862;9.188;2023-02-18T16:19:04;13.40;99.90
9209;DHT22;4639;48.862;9.188;2023-02-18T16:21:43;13.50;99.90
9209;DHT22;4639;48.862;9.188;2023-02-18T16:24:25;13.50;99.90
9209;DHT22;4639;48.862;9.188;2023-02-18T16:26:53;13.50;99.90
9209;DHT22;4639;48.862;9.188;2023-02-18T16:29:25;13.60;99.90
9209;DHT22;4639;48.862;9.188;2023-02-18T16:31:52;13.70;99.90
9209;DHT22;4639;48.862;9.188;2023-02-18T16:34:17;13.60;99.90
9209;DHT22;4639;48.862;9.188;2023-02-18T16:36:43;13.60;99.90
9209;DHT22;4639;48.862;9.188;2023-02-18T16:39:29;13.60;99.90
9209;DHT22;4639;48.862;9.188;2023-02-18T16:41:57;13.40;99.90
9209;DHT22;4639;48.862;9.188;2023-02-18T16:44:22;13.30;99.90
9209;DHT22;4639;48.862;9.188;2023-02-18T16:46:48;13.20;99.90
9209;DHT22;4639;48.862;9.188;2023-02-18T16:49:13;13.20;99.90
9209;DHT22;4639;48.862;9.188;2023-02-18T16:51:40;13.20;99.90
9209;DHT22;4639;48.862;9.188;2023-02-18T16:54:10;13.10;99.90
9209;DHT22;4639;48.862;9.188;2023-02-18T16:56:36;13.20;99.90
9209;DHT22;4639;48.862;9.188;2023-02-18T16:59:02;13.20;99.90
9209;DHT22;4639;48.862;9.188;2023-02-18T17:01:33;13.10;99.90
9209;DHT22;4639;48.862;9.188;2023-02-18T17:04:02;13.10;99.90
9209;DHT22;4639;48.862;9.188;2023-02-18T17:06:28;13.20;99.90
9209;DHT22;4639;48.862;9.188;2023-02-18T17:08:55;13.10;99.90
9209;DHT22;4639;48.862;9.188;2023-02-18T17:11:32;13.10;99.90
9209;DHT22;4639;48.862;9.188;2023-02-18T17:13:58;13.10;99.90
9209;DHT22;4639;48.862;9.188;2023-02-18T17:16:25;13.10;99.90
9209;DHT22;4639;48.862;9.188;2023-02-18T17:18:51;13.10;99.90
9209;DHT22;4639;48.862;9.188;2023-02-18T17:21:19;13.20;99.90
9209;DHT22;4639;48.862;9.188;2023-02-18T17:23:46;13.40;99.90
9209;DHT22;4639;48.862;9.188;2023-02-18T17:28:43;13.10;99.90
9209;DHT22;4639;48.862;9.188;2023-02-18T17:31:13;13.10;99.90
9209;DHT22;4639;48.862;9.188;2023-02-18T17:33:40;13.10;99.90
9209;DHT22;4639;48.862;9.188;2023-02-18T17:36:06;13.10;99.90
9209;DHT22;4639;48.862;9.188;2023-02-18T17:38:32;13.10;99.90
9209;DHT22;4639;48.862;9.188;2023-02-18T17:40:58;13.00;99.90
9209;DHT22;4639;48.862;9.188;2023-02-18T17:43:24;13.00;99.90
9209;DHT22;4639;48.862;9.188;2023-02-18T17:45:52;13.10;99.90
9209;DHT22;4639;48.862;9.188;2023-02-18T17:48:18;13.00;99.90
9209;DHT22;4639;48.862;9.188;2023-02-18T17:50:44;12.90;99.90
9209;DHT22;4639;48.862;9.188;2023-02-18T17:53:11;12.90;99.90
9209;DHT22;4639;48.862;9.188;2023-02-18T17:55:37;12.90;99.90
9209;DHT22;4639;48.862;9.188;2023-02-18T17:58:02;12.80;99.90
9209;DHT22;4639;48.862;9.188;2023-02-18T18:00:34;12.70;99.90
9209;DHT22;4639;48.862;9.188;2023-02-18T18:03:01;12.70;99.90
9209;DHT22;4639;48.862;9.188;2023-02-18T18:05:32;12.80;99.90
9209;DHT22;4639;48.862;9.188;2023-02-18T18:07:59;12.70;99.90
9209;DHT22;4639;48.862;9.188;2023-02-18T18:10:27;12.60;99.90
9209;DHT22;4639;48.862;9.188;2023-02-18T18:12:59;12.70;99.90
9209;DHT22;4639;48.862;9.188;2023-02-18T18:15:30;12.80;99.90
9209;DHT22;4639;48.862;9.188;2023-02-18T18:17:58;12.70;99.90
9209;DHT22;4639;48.862;9.188;2023-02-18T18:20:25;12.70;99.90
9209;DHT22;4639;48.862;9.188;2023-02-18T18:22:53;12.70;99.90
9209;DHT22;4639;48.862;9.188;2023-02-18T18:25:31;12.50;99.90
9209;DHT22;4639;48.862;9.188;2023-02-18T18:27:57;12.50;99.90
9209;DHT22;4639;48.862;9.188;2023-02-18T18:30:26;12.50;99.90
9209;DHT22;4639;48.862;9.188;2023-02-18T18:32:51;12.50;99.90